createdAt,value
2023-03-15T00:02:07.476Z,12.00
2023-03-15T00:04:35.512Z,11.83
2023-03-15T00:07:03.378Z,11.60
2023-03-15T00:09:31.085Z,11.51
2023-03-15T00:11:58.779Z,10.70
2023-03-15T00:14:26.635Z,10.95
2023-03-15T00:16:54.944Z,10.48
2023-03-15T00:19:22.628Z,10.46
2023-03-15T00:21:50.287Z,10.76
2023-03-15T00:24:18.002Z,10.08
2023-03-15T00:26:45.792Z,10.34
2023-03-15T00:29:13.543Z,10.14
2023-03-15T00:31:41.423Z,10.25
2023-03-15T00:34:09.233Z,9.77
2023-03-15T00:36:37.900Z,9.78
2023-03-15T00:39:05.686Z,9.66
2023-03-15T00:41:34.159Z,9.20
2023-03-15T00:44:03.976Z,9.21
2023-03-15T00:46:32.066Z,8.62
2023-03-15T00:48:59.896Z,8.80
2023-03-15T00:51:27.709Z,9.06
2023-03-15T00:53:55.437Z,8.37
2023-03-15T00:56:30.278Z,8.15
2023-03-15T00:59:00.037Z,8.29
2023-03-15T01:01:30.088Z,8.03
2023-03-15T01:03:58.214Z,7.82
2023-03-15T01:06:28.380Z,7.99
2023-03-15T01:08:57.279Z,7.64
2023-03-15T01:11:28.265Z,7.53
2023-03-15T01:13:59.815Z,7.03
2023-03-15T01:16:29.123Z,6.23
2023-03-15T01:18:57.169Z,6.78
2023-03-15T01:21:26.182Z,6.25
2023-03-15T01:23:54.678Z,5.98
2023-03-15T01:26:23.644Z,6.21
2023-03-15T01:28:52.163Z,6.07
2023-03-15T01:31:24.624Z,5.93
2023-03-15T01:33:52.841Z,6.03
2023-03-15T01:36:21.344Z,6.70
2023-03-15T01:38:52.509Z,6.36
2023-03-15T01:41:26.000Z,6.37
2023-03-15T01:43:54.165Z,6.36
2023-03-15T01:46:25.484Z,6.19
2023-03-15T01:49:07.732Z,5.48
2023-03-15T01:51:41.888Z,5.09
2023-03-15T01:54:20.572Z,5.29
2023-03-15T01:57:04.660Z,5.58
2023-03-15T01:59:51.359Z,6.53
2023-03-15T02:02:23.194Z,6.54
2023-03-15T02:05:13.091Z,6.20
2023-03-15T02:07:50.090Z,5.92
2023-03-15T02:10:45.461Z,5.94
2023-03-15T02:13:19.517Z,5.95
2023-03-15T02:15:47.364Z,5.45
2023-03-15T02:18:22.374Z,5.02
2023-03-15T02:21:11.575Z,4.67
2023-03-15T02:23:39.866Z,4.27
2023-03-15T02:26:18.565Z,4.07
2023-03-15T02:28:47.973Z,3.65
2023-03-15T02:31:16.532Z,3.37
2023-03-15T02:33:47.737Z,3.71
2023-03-15T02:36:25.578Z,3.92
2023-03-15T02:38:54.880Z,4.14
2023-03-15T02:41:37.524Z,4.24
2023-03-15T02:44:24.487Z,4.54
2023-03-15T02:46:56.593Z,4.72
2023-03-15T02:49:31.804Z,4.79
2023-03-15T02:51:59.509Z,5.02
2023-03-15T02:54:27.336Z,4.97
2023-03-15T02:56:55.167Z,5.07
2023-03-15T02:59:22.844Z,5.15
2023-03-15T03:01:51.253Z,5.48
2023-03-15T03:04:19.326Z,5.61
2023-03-15T03:06:47.119Z,5.34
2023-03-15T03:09:19.977Z,6.01
2023-03-15T03:11:47.862Z,6.13
2023-03-15T03:14:15.765Z,6.23
2023-03-15T03:16:43.922Z,6.29
2023-03-15T03:19:15.533Z,6.13
2023-03-15T03:21:44.714Z,5.96
2023-03-15T03:24:16.397Z,6.58
2023-03-15T03:26:46.230Z,6.66
2023-03-15T03:29:16.697Z,6.68
2023-03-15T03:31:46.828Z,7.10
2023-03-15T03:34:15.864Z,7.47
2023-03-15T03:36:44.709Z,7.52
2023-03-15T03:39:16.090Z,8.13
2023-03-15T03:41:45.204Z,7.82
2023-03-15T03:44:13.827Z,8.29
2023-03-15T03:46:43.690Z,8.77
2023-03-15T03:49:14.890Z,8.62
2023-03-15T03:51:42.827Z,8.75
2023-03-15T03:54:10.853Z,9.01
2023-03-15T03:56:39.817Z,8.25
2023-03-15T03:59:07.885Z,7.46
2023-03-15T04:01:48.839Z,6.97
2023-03-15T04:04:16.976Z,6.80
2023-03-15T04:06:46.284Z,5.78
2023-03-15T04:09:17.804Z,6.13
2023-03-15T04:11:48.666Z,5.68
2023-03-15T04:14:18.060Z,5.14
2023-03-15T04:16:48.715Z,5.31
2023-03-15T04:19:18.835Z,5.73
2023-03-15T04:21:47.752Z,6.03
2023-03-15T04:24:24.695Z,6.51
2023-03-15T04:27:14.848Z,6.81
2023-03-15T04:30:05.757Z,6.99
2023-03-15T04:32:58.904Z,7.23
2023-03-15T04:35:45.137Z,7.51
2023-03-15T04:38:32.415Z,7.46
2023-03-15T04:41:19.259Z,7.60
2023-03-15T04:44:11.373Z,7.35
2023-03-15T04:47:02.692Z,7.04
2023-03-15T04:49:50.749Z,6.75
2023-03-15T04:52:51.333Z,6.83
2023-03-15T04:55:48.383Z,6.53
2023-03-15T04:58:41.654Z,6.58
2023-03-15T05:01:32.373Z,6.39
2023-03-15T05:04:14.806Z,6.36
2023-03-15T05:06:55.161Z,7.01
2023-03-15T05:09:41.459Z,7.29
2023-03-15T05:12:26.265Z,6.75
2023-03-15T05:15:13.660Z,6.78
2023-03-15T05:17:55.962Z,6.84
2023-03-15T05:20:43.707Z,6.77
2023-03-15T05:23:26.744Z,6.68
2023-03-15T05:26:07.544Z,7.13
2023-03-15T05:28:58.174Z,7.02
2023-03-15T05:31:58.856Z,6.49
2023-03-15T05:34:54.826Z,6.60
2023-03-15T05:37:49.080Z,6.42
2023-03-15T05:40:33.212Z,5.98
2023-03-15T05:43:39.422Z,5.63
2023-03-15T05:46:16.107Z,5.38
2023-03-15T05:49:01.676Z,5.56
2023-03-15T05:51:55.563Z,6.28
2023-03-15T05:54:43.490Z,6.36
2023-03-15T05:57:34.298Z,6.87
2023-03-15T06:00:25.098Z,7.42
2023-03-15T06:02:58.491Z,7.48
2023-03-15T06:05:48.884Z,7.65
2023-03-15T06:08:21.220Z,8.33
2023-03-15T06:10:51.775Z,8.49
2023-03-15T06:13:19.713Z,8.55
2023-03-15T06:15:48.124Z,8.69
2023-03-15T06:18:17.806Z,8.80
2023-03-15T06:20:47.949Z,9.27
2023-03-15T06:23:15.999Z,9.96
2023-03-15T06:25:47.138Z,10.54
2023-03-15T06:28:16.013Z,10.96
2023-03-15T06:30:50.722Z,15.77
2023-03-15T06:33:21.621Z,17.85
2023-03-15T06:35:50.256Z,14.52
2023-03-15T06:38:18.556Z,17.31
2023-03-15T06:40:46.405Z,22.59
2023-03-15T06:43:19.577Z,25.41
2023-03-15T06:45:47.764Z,21.12
2023-03-15T06:48:17.590Z,21.40
2023-03-15T06:50:47.676Z,21.48
2023-03-15T06:53:17.891Z,18.40
2023-03-15T06:55:46.889Z,16.15
2023-03-15T06:58:15.429Z,14.88
2023-03-15T07:00:44.567Z,14.38
2023-03-15T07:03:12.565Z,13.43
2023-03-15T07:05:40.570Z,12.62
2023-03-15T07:08:08.329Z,12.48
2023-03-15T07:10:36.699Z,12.26
2023-03-15T07:13:06.972Z,12.47
2023-03-15T07:15:37.401Z,11.71
2023-03-15T07:18:05.129Z,12.11
2023-03-15T07:20:35.567Z,11.80
2023-03-15T07:23:05.169Z,11.18
2023-03-15T07:25:37.633Z,11.10
2023-03-15T07:28:10.325Z,10.19
2023-03-15T07:30:38.088Z,10.28
2023-03-15T07:33:05.915Z,10.27
2023-03-15T07:35:34.168Z,9.98
2023-03-15T07:38:02.206Z,10.13
2023-03-15T07:40:30.366Z,11.35
2023-03-15T07:42:58.223Z,11.63
2023-03-15T07:45:25.944Z,11.02
2023-03-15T07:47:56.517Z,10.74
2023-03-15T07:50:24.440Z,10.56
2023-03-15T07:52:52.341Z,10.69
2023-03-15T07:55:20.145Z,10.65
2023-03-15T07:57:50.321Z,10.46
2023-03-15T08:00:19.664Z,10.85
2023-03-15T08:02:47.324Z,10.28
2023-03-15T08:05:15.404Z,10.72
2023-03-15T08:07:43.264Z,10.45
2023-03-15T08:10:11.895Z,10.10
2023-03-15T08:12:43.093Z,10.63
2023-03-15T08:15:15.643Z,10.81
2023-03-15T08:17:44.057Z,10.84
2023-03-15T08:20:17.718Z,11.06
2023-03-15T08:22:47.869Z,10.90
2023-03-15T08:25:19.026Z,11.13
2023-03-15T08:27:46.987Z,11.24
2023-03-15T08:30:16.337Z,12.14
2023-03-15T08:32:46.142Z,11.19
2023-03-15T08:35:16.717Z,12.11
2023-03-15T08:37:48.132Z,12.43
2023-03-15T08:40:25.124Z,11.72
2023-03-15T08:42:53.946Z,12.05
2023-03-15T08:45:26.271Z,13.76
2023-03-15T08:47:58.849Z,14.85
2023-03-15T08:50:28.644Z,13.16
2023-03-15T08:52:56.430Z,12.72
2023-03-15T08:55:24.193Z,12.65
2023-03-15T08:57:52.037Z,12.13
2023-03-15T09:00:25.687Z,12.43
2023-03-15T09:02:53.554Z,12.42
2023-03-15T09:05:22.918Z,12.33
2023-03-15T09:07:53.392Z,12.48
2023-03-15T09:10:22.264Z,11.82
2023-03-15T09:12:53.990Z,11.42
2023-03-15T09:15:22.095Z,11.38
2023-03-15T09:17:54.816Z,11.47
2023-03-15T09:20:28.269Z,12.32
2023-03-15T09:22:58.334Z,12.49
2023-03-15T09:25:27.237Z,12.26
2023-03-15T09:27:55.222Z,12.17
2023-03-15T09:30:23.131Z,12.11
2023-03-15T09:32:51.770Z,11.18
2023-03-15T09:35:21.538Z,10.54
2023-03-15T09:37:51.123Z,10.82
2023-03-15T09:40:32.454Z,10.27
2023-03-15T09:43:15.027Z,10.37
2023-03-15T09:46:20.169Z,9.74
2023-03-15T09:48:53.663Z,10.13
2023-03-15T09:51:48.165Z,9.81
2023-03-15T09:54:23.997Z,10.93
2023-03-15T09:57:05.130Z,10.69
2023-03-15T09:59:39.039Z,10.50
2023-03-15T10:02:33.928Z,10.63
2023-03-15T10:05:08.166Z,10.42
2023-03-15T10:07:36.976Z,11.46
2023-03-15T10:10:09.294Z,12.52
2023-03-15T10:12:44.126Z,11.33
2023-03-15T10:15:33.984Z,11.83
2023-03-15T10:18:22.309Z,10.32
2023-03-15T10:21:05.926Z,8.59
2023-03-15T10:23:49.895Z,7.79
2023-03-15T10:26:28.174Z,7.44
2023-03-15T10:28:59.058Z,6.68
2023-03-15T10:31:44.591Z,7.08
2023-03-15T10:34:14.156Z,7.01
2023-03-15T10:36:49.280Z,7.62
2023-03-15T10:39:17.684Z,8.19
2023-03-15T10:41:48.769Z,8.41
2023-03-15T10:44:25.701Z,8.45
2023-03-15T10:47:22.998Z,7.63
2023-03-15T10:49:58.103Z,7.82
2023-03-15T10:52:41.821Z,7.51
2023-03-15T10:55:17.261Z,7.69
2023-03-15T10:58:02.357Z,7.70
2023-03-15T11:00:36.432Z,6.12
2023-03-15T11:03:08.337Z,5.40
2023-03-15T11:05:46.354Z,4.78
2023-03-15T11:08:17.252Z,4.28
2023-03-15T11:10:47.277Z,4.78
2023-03-15T11:13:27.595Z,5.08
2023-03-15T11:16:13.881Z,4.67
2023-03-15T11:19:03.672Z,5.47
2023-03-15T11:21:34.336Z,5.35
2023-03-15T11:24:05.804Z,5.09
2023-03-15T11:26:44.106Z,5.11
2023-03-15T11:29:31.885Z,4.58
2023-03-15T11:32:02.554Z,4.14
2023-03-15T11:34:45.879Z,4.31
2023-03-15T11:37:45.761Z,4.15
2023-03-15T11:40:18.419Z,3.74
2023-03-15T11:43:21.755Z,3.76
2023-03-15T11:46:08.886Z,3.28
2023-03-15T11:49:00.595Z,3.57
2023-03-15T11:51:34.831Z,3.29
2023-03-15T11:54:13.707Z,3.65
2023-03-15T11:56:44.166Z,4.10
2023-03-15T11:59:16.100Z,4.10
2023-03-15T12:01:59.362Z,3.92
2023-03-15T12:04:32.809Z,3.77
2023-03-15T12:07:07.359Z,3.73
2023-03-15T12:09:37.826Z,3.64
2023-03-15T12:12:26.258Z,3.07
2023-03-15T12:15:15.079Z,3.25
2023-03-15T12:17:58.024Z,3.33
2023-03-15T12:20:42.945Z,3.37
2023-03-15T12:23:19.771Z,3.56
2023-03-15T12:26:02.197Z,3.71
2023-03-15T12:29:03.985Z,3.78
2023-03-15T12:31:52.690Z,3.74
2023-03-15T12:34:50.305Z,3.37
2023-03-15T12:37:40.720Z,3.20
2023-03-15T12:40:20.613Z,2.89
2023-03-15T12:42:48.468Z,2.72
2023-03-15T12:45:17.701Z,3.24
2023-03-15T12:47:51.693Z,3.51
2023-03-15T12:50:39.485Z,3.48
2023-03-15T12:53:22.590Z,3.31
2023-03-15T12:55:59.487Z,3.03
2023-03-15T12:58:39.287Z,2.84
2023-03-15T13:01:16.369Z,2.78
2023-03-15T13:03:44.966Z,2.83
2023-03-15T13:06:37.334Z,2.94
2023-03-15T13:09:33.777Z,2.93
2023-03-15T13:12:08.950Z,2.59
2023-03-15T13:15:04.521Z,2.55
2023-03-15T13:17:44.473Z,2.26
2023-03-15T13:20:38.622Z,2.46
2023-03-15T13:23:23.232Z,2.18
2023-03-15T13:26:02.831Z,2.18
2023-03-15T13:28:46.809Z,2.38
2023-03-15T13:31:23.801Z,2.07
2023-03-15T13:33:57.745Z,1.81
2023-03-15T13:36:46.342Z,1.92
2023-03-15T13:40:03.646Z,2.30
2023-03-15T13:42:32.062Z,2.03
2023-03-15T13:45:11.454Z,2.30
2023-03-15T13:47:45.234Z,2.28
2023-03-15T13:50:16.697Z,2.27
2023-03-15T13:52:45.990Z,2.09
2023-03-15T13:55:19.542Z,2.16
2023-03-15T13:57:48.173Z,2.10
2023-03-15T14:00:20.575Z,2.18
2023-03-15T14:03:00.837Z,1.96
2023-03-15T14:05:42.622Z,2.13
2023-03-15T14:08:45.872Z,2.47
2023-03-15T14:11:31.451Z,2.86
2023-03-15T14:14:04.307Z,2.48
2023-03-15T14:17:01.181Z,2.04
2023-03-15T14:19:35.021Z,2.01
2023-03-15T14:22:18.508Z,2.06
2023-03-15T14:24:51.168Z,2.03
2023-03-15T14:27:22.678Z,2.18
2023-03-15T14:29:54.592Z,2.63
2023-03-15T14:32:39.208Z,2.32
2023-03-15T14:35:08.107Z,1.76
2023-03-15T14:37:39.961Z,1.56
2023-03-15T14:40:21.832Z,1.73
2023-03-15T14:42:51.666Z,1.99
2023-03-15T14:45:22.455Z,2.14
2023-03-15T14:47:58.089Z,2.38
2023-03-15T14:50:38.022Z,2.43
2023-03-15T14:53:07.595Z,2.80
2023-03-15T14:55:37.868Z,2.81
2023-03-15T14:58:13.500Z,2.70
2023-03-15T15:00:42.864Z,2.62
2023-03-15T15:03:38.541Z,2.89
2023-03-15T15:06:11.191Z,2.90
2023-03-15T15:08:42.708Z,3.00
2023-03-15T15:11:11.227Z,2.86
2023-03-15T15:13:40.473Z,3.03
2023-03-15T15:16:09.290Z,2.86
2023-03-15T15:18:38.075Z,3.11
2023-03-15T15:21:29.868Z,2.66
2023-03-15T15:23:59.427Z,2.25
2023-03-15T15:26:30.808Z,2.13
2023-03-15T15:28:59.669Z,2.59
2023-03-15T15:31:29.588Z,2.66
2023-03-15T15:33:57.634Z,2.62
2023-03-15T15:36:32.689Z,2.76
2023-03-15T15:39:06.384Z,2.45
2023-03-15T15:41:34.813Z,2.83
2023-03-15T15:44:02.720Z,3.15
2023-03-15T15:46:30.676Z,3.13
2023-03-15T15:48:58.900Z,3.36
2023-03-15T15:51:38.760Z,3.50
2023-03-15T15:54:12.688Z,3.38
2023-03-15T15:56:51.122Z,3.41
2023-03-15T15:59:19.048Z,3.15
2023-03-15T16:02:00.576Z,3.37
2023-03-15T16:04:30.523Z,3.62
2023-03-15T16:07:02.346Z,3.72
2023-03-15T16:09:35.833Z,3.60
2023-03-15T16:12:11.071Z,3.41
2023-03-15T16:14:38.770Z,3.46
2023-03-15T16:17:21.708Z,3.46
2023-03-15T16:19:50.151Z,3.75
2023-03-15T16:22:21.541Z,3.25
2023-03-15T16:24:54.827Z,3.41
2023-03-15T16:27:27.002Z,3.47
2023-03-15T16:29:56.201Z,3.29
2023-03-15T16:32:37.201Z,3.58
2023-03-15T16:35:16.242Z,3.64
2023-03-15T16:37:45.861Z,3.64
2023-03-15T16:40:23.206Z,3.32
2023-03-15T16:42:51.308Z,3.15
2023-03-15T16:45:19.659Z,3.32
2023-03-15T16:47:48.846Z,3.49
2023-03-15T16:50:16.813Z,3.33
2023-03-15T16:52:48.021Z,3.51
2023-03-15T16:55:20.269Z,3.20
2023-03-15T16:57:47.977Z,3.60
2023-03-15T17:00:20.410Z,3.35
2023-03-15T17:02:52.342Z,3.34
2023-03-15T17:05:21.358Z,3.66
2023-03-15T17:07:51.403Z,3.51
2023-03-15T17:10:29.440Z,3.23
2023-03-15T17:13:02.045Z,3.14
2023-03-15T17:15:31.007Z,2.93
2023-03-15T17:17:58.918Z,3.33
2023-03-15T17:20:28.646Z,3.59
2023-03-15T17:23:05.196Z,3.19
2023-03-15T17:25:34.480Z,3.46
2023-03-15T17:28:02.794Z,3.50
2023-03-15T17:30:34.275Z,3.98
2023-03-15T17:33:02.861Z,4.27
2023-03-15T17:35:55.020Z,3.89
2023-03-15T17:38:27.152Z,3.90
2023-03-15T17:40:55.452Z,3.96
2023-03-15T17:43:23.366Z,3.98
2023-03-15T17:45:52.527Z,3.81
2023-03-15T17:48:20.321Z,4.40
2023-03-15T17:50:48.408Z,4.77
2023-03-15T17:53:19.797Z,5.31
2023-03-15T17:55:49.317Z,5.31
2023-03-15T17:58:23.175Z,6.19
2023-03-15T18:00:54.884Z,6.41
2023-03-15T18:03:24.157Z,6.32
2023-03-15T18:05:52.259Z,6.59
2023-03-15T18:08:22.425Z,6.26
2023-03-15T18:10:52.069Z,6.52
2023-03-15T18:13:21.758Z,6.40
2023-03-15T18:15:51.264Z,6.60
2023-03-15T18:18:19.312Z,6.34
2023-03-15T18:20:49.698Z,6.26
2023-03-15T18:23:19.007Z,5.60
2023-03-15T18:25:47.202Z,5.51
2023-03-15T18:28:14.971Z,5.38
2023-03-15T18:30:44.424Z,5.28
2023-03-15T18:33:14.232Z,5.23
2023-03-15T18:35:42.093Z,5.38
2023-03-15T18:38:10.025Z,5.55
2023-03-15T18:40:37.791Z,5.45
2023-03-15T18:43:05.957Z,5.94
2023-03-15T18:45:35.820Z,6.41
2023-03-15T18:48:04.593Z,6.69
2023-03-15T18:50:33.664Z,6.67
2023-03-15T18:53:04.989Z,7.02
2023-03-15T18:55:34.307Z,6.78
2023-03-15T18:58:02.256Z,7.45
2023-03-15T19:00:36.052Z,7.78
2023-03-15T19:03:06.437Z,8.33
2023-03-15T19:05:37.471Z,8.33
2023-03-15T19:08:05.453Z,8.15
2023-03-15T19:10:33.314Z,8.28
2023-03-15T19:13:02.968Z,8.47
2023-03-15T19:15:32.225Z,9.20
2023-03-15T19:18:00.908Z,8.75
2023-03-15T19:20:28.849Z,8.48
2023-03-15T19:22:56.557Z,8.22
2023-03-15T19:25:24.371Z,8.35
2023-03-15T19:27:52.267Z,8.53
2023-03-15T19:30:22.554Z,8.17
2023-03-15T19:32:51.346Z,8.64
2023-03-15T19:35:21.360Z,8.27
2023-03-15T19:37:50.162Z,9.67
2023-03-15T19:40:18.748Z,9.06
2023-03-15T19:42:48.837Z,9.57
2023-03-15T19:45:17.573Z,9.50
2023-03-15T19:47:45.603Z,10.26
2023-03-15T19:50:14.876Z,10.35
2023-03-15T19:52:48.828Z,10.85
2023-03-15T19:55:21.219Z,10.37
2023-03-15T19:57:49.127Z,11.33
2023-03-15T20:00:19.188Z,10.54
2023-03-15T20:02:48.014Z,10.59
2023-03-15T20:05:19.374Z,10.20
2023-03-15T20:07:48.916Z,10.13
2023-03-15T20:10:16.852Z,9.38
2023-03-15T20:12:45.674Z,9.13
2023-03-15T20:15:17.120Z,9.19
2023-03-15T20:17:45.696Z,9.08
2023-03-15T20:20:14.888Z,9.30
2023-03-15T20:22:44.576Z,9.69
2023-03-15T20:25:18.426Z,9.56
2023-03-15T20:27:46.678Z,9.53
2023-03-15T20:30:16.406Z,9.45
2023-03-15T20:32:44.882Z,9.95
2023-03-15T20:35:13.119Z,9.54
2023-03-15T20:37:42.515Z,10.00
2023-03-15T20:40:14.853Z,10.04
2023-03-15T20:42:43.851Z,9.99
2023-03-15T20:45:13.889Z,9.71
2023-03-15T20:47:42.607Z,8.50
2023-03-15T20:50:11.986Z,8.11
2023-03-15T20:52:41.116Z,8.68
2023-03-15T20:55:10.331Z,8.47
2023-03-15T20:57:41.585Z,8.36
2023-03-15T21:00:13.016Z,8.15
2023-03-15T21:02:42.041Z,8.07
2023-03-15T21:05:13.492Z,8.43
2023-03-15T21:07:42.501Z,8.18
2023-03-15T21:10:14.280Z,8.25
2023-03-15T21:12:42.730Z,8.36
2023-03-15T21:15:17.913Z,8.33
2023-03-15T21:17:49.217Z,7.82
2023-03-15T21:20:18.484Z,7.58
2023-03-15T21:22:46.524Z,7.43
2023-03-15T21:25:14.668Z,7.69
2023-03-15T21:27:42.769Z,7.78
2023-03-15T21:30:14.163Z,7.78
2023-03-15T21:32:42.986Z,7.65
2023-03-15T21:35:11.491Z,7.15
2023-03-15T21:37:40.314Z,7.00
2023-03-15T21:40:09.301Z,6.63
2023-03-15T21:42:37.328Z,6.46
2023-03-15T21:45:07.715Z,6.63
2023-03-15T21:47:35.602Z,6.42
2023-03-15T21:50:03.659Z,6.60
2023-03-15T21:52:31.570Z,6.22
2023-03-15T21:54:59.769Z,6.42
2023-03-15T21:57:27.716Z,6.42
2023-03-15T21:59:55.338Z,6.19
2023-03-15T22:02:23.196Z,6.81
2023-03-15T22:04:52.004Z,6.29
2023-03-15T22:07:19.852Z,6.61
2023-03-15T22:09:47.554Z,6.72
2023-03-15T22:12:16.085Z,6.53
2023-03-15T22:14:45.911Z,6.65
2023-03-15T22:17:15.309Z,6.27
2023-03-15T22:19:43.394Z,6.53
2023-03-15T22:22:11.555Z,6.50
2023-03-15T22:24:39.376Z,6.55
2023-03-15T22:27:07.291Z,6.39
2023-03-15T22:29:35.077Z,6.03
2023-03-15T22:32:04.094Z,6.09
2023-03-15T22:34:34.226Z,5.91
2023-03-15T22:37:02.293Z,6.20
2023-03-15T22:39:34.506Z,6.29
2023-03-15T22:42:02.318Z,6.24
2023-03-15T22:44:30.578Z,5.96
2023-03-15T22:46:58.721Z,6.03
2023-03-15T22:49:26.621Z,6.07
2023-03-15T22:51:54.272Z,5.79
2023-03-15T22:54:22.094Z,5.83
2023-03-15T22:56:49.799Z,5.93
2023-03-15T22:59:17.774Z,5.64
2023-03-15T23:01:45.662Z,5.45
2023-03-15T23:04:13.682Z,5.13
2023-03-15T23:06:41.757Z,5.19
2023-03-15T23:09:09.597Z,5.38
2023-03-15T23:11:37.455Z,5.44
2023-03-15T23:14:05.315Z,5.46
2023-03-15T23:16:33.099Z,5.44
2023-03-15T23:19:03.414Z,5.20
2023-03-15T23:21:31.248Z,5.45
2023-03-15T23:23:59.149Z,5.20
2023-03-15T23:26:27.720Z,5.13
2023-03-15T23:28:56.200Z,5.24
2023-03-15T23:31:23.982Z,5.27
2023-03-15T23:33:51.766Z,5.50
2023-03-15T23:36:19.498Z,5.16
2023-03-15T23:38:47.241Z,5.38
2023-03-15T23:41:15.021Z,5.20
2023-03-15T23:43:42.686Z,5.34
2023-03-15T23:46:10.456Z,5.41
2023-03-15T23:48:38.126Z,5.05
2023-03-15T23:51:05.995Z,4.98
2023-03-15T23:53:33.854Z,4.71
2023-03-15T23:56:02.364Z,5.23
2023-03-15T23:58:30.085Z,4.97
